CheckWX is a tool to help pilots better visualize weather data.  It is not intended as a substitute for an official pre-flight weather briefing.

08:33:28 UTC

KILN TAF
Wilmington Airpark
Wilmington, Ohio, USA
KILN 051136Z 0512/0612 04004KT P6SM SCT120 FM051500 04005KT P6SM SCT060 FM060100 07004KT P6SM SCT250

Jul-5@
12:00 UTC

Jul-5 @ 12:00 UTC

Jul-5@
15:00 UTC

Jul-5 @ 15:00 UTC

TAF KILN 051136Z 0512/0612 04004KT P6SM SCT120

Expired

Wind
  • 040° at 4 KTS
Cloud Levels
  • Scattered at 12,000' AGL

Jul-5@
15:00 UTC

Jul-5 @ 15:00 UTC

Jul-6@
01:00 UTC

Jul-6 @ 01:00 UTC

FM051500 04005KT P6SM SCT060

Expired

Wind
  • 040° at 5 KTS
Cloud Levels
  • Scattered at 6,000' AGL

Jul-6@
01:00 UTC

Jul-6 @ 01:00 UTC

Jul-6@
12:00 UTC

Jul-6 @ 12:00 UTC

FM060100 07004KT P6SM SCT250

From

From Standard forecast or significant change

Wind
  • 070° at 4 KTS
Cloud Levels
  • Scattered at 25,000' AGL